sensor_id;sensor_type;location;lat;lon;timestamp;P1;durP1;ratioP1;P2;durP2;ratioP2
40170;SDS011;37650;52.790;18.268;2023-02-28T00:03:00;33.20;;;17.20;;
40170;SDS011;37650;52.790;18.268;2023-02-28T00:06:22;31.30;;;17.30;;
40170;SDS011;37650;52.790;18.268;2023-02-28T00:09:44;30.30;;;17.50;;
40170;SDS011;37650;52.790;18.268;2023-02-28T00:13:06;39.70;;;19.30;;
40170;SDS011;37650;52.790;18.268;2023-02-28T00:16:28;36.30;;;17.80;;
40170;SDS011;37650;52.790;18.268;2023-02-28T00:19:50;38.30;;;17.10;;
40170;SDS011;37650;52.790;18.268;2023-02-28T00:23:12;35.90;;;17.10;;
40170;SDS011;37650;52.790;18.268;2023-02-28T00:26:33;40.70;;;19.50;;
40170;SDS011;37650;52.790;18.268;2023-02-28T00:29:54;34.70;;;16.60;;
40170;SDS011;37650;52.790;18.268;2023-02-28T00:33:15;39.30;;;18.60;;
40170;SDS011;37650;52.790;18.268;2023-02-28T00:36:37;36.80;;;16.90;;
40170;SDS011;37650;52.790;18.268;2023-02-28T00:39:58;39.60;;;18.60;;
40170;SDS011;37650;52.790;18.268;2023-02-28T00:43:21;38.10;;;17.80;;
40170;SDS011;37650;52.790;18.268;2023-02-28T00:46:42;38.00;;;16.60;;
40170;SDS011;37650;52.790;18.268;2023-02-28T00:50:04;30.10;;;15.00;;
40170;SDS011;37650;52.790;18.268;2023-02-28T00:53:26;28.60;;;14.10;;
40170;SDS011;37650;52.790;18.268;2023-02-28T00:56:51;29.70;;;16.80;;
40170;SDS011;37650;52.790;18.268;2023-02-28T01:00:12;33.20;;;16.20;;
40170;SDS011;37650;52.790;18.268;2023-02-28T01:03:33;36.60;;;17.00;;
40170;SDS011;37650;52.790;18.268;2023-02-28T01:06:54;34.10;;;16.30;;
40170;SDS011;37650;52.790;18.268;2023-02-28T01:10:16;34.60;;;17.70;;
40170;SDS011;37650;52.790;18.268;2023-02-28T01:13:37;31.90;;;17.70;;
40170;SDS011;37650;52.790;18.268;2023-02-28T01:16:58;31.10;;;16.20;;
40170;SDS011;37650;52.790;18.268;2023-02-28T01:20:20;27.60;;;15.30;;
40170;SDS011;37650;52.790;18.268;2023-02-28T01:23:42;30.40;;;15.40;;
40170;SDS011;37650;52.790;18.268;2023-02-28T01:27:05;28.90;;;14.20;;
40170;SDS011;37650;52.790;18.268;2023-02-28T01:30:26;26.70;;;14.50;;
40170;SDS011;37650;52.790;18.268;2023-02-28T01:33:47;30.20;;;16.10;;
40170;SDS011;37650;52.790;18.268;2023-02-28T01:37:08;32.20;;;15.70;;
40170;SDS011;37650;52.790;18.268;2023-02-28T01:40:29;34.10;;;16.30;;
40170;SDS011;37650;52.790;18.268;2023-02-28T01:43:58;30.10;;;15.10;;
40170;SDS011;37650;52.790;18.268;2023-02-28T01:47:24;34.30;;;17.40;;
40170;SDS011;37650;52.790;18.268;2023-02-28T01:50:54;33.80;;;16.50;;
40170;SDS011;37650;52.790;18.268;2023-02-28T01:54:29;33.00;;;16.90;;
40170;SDS011;37650;52.790;18.268;2023-02-28T01:57:55;31.90;;;15.70;;
40170;SDS011;37650;52.790;18.268;2023-02-28T02:01:20;36.20;;;17.90;;
40170;SDS011;37650;52.790;18.268;2023-02-28T02:04:50;33.00;;;17.50;;
40170;SDS011;37650;52.790;18.268;2023-02-28T02:08:19;31.30;;;15.10;;
40170;SDS011;37650;52.790;18.268;2023-02-28T02:11:43;30.30;;;16.70;;
40170;SDS011;37650;52.790;18.268;2023-02-28T02:34:24;34.20;;;17.90;;
40170;SDS011;37650;52.790;18.268;2023-02-28T02:37:49;32.10;;;16.80;;
40170;SDS011;37650;52.790;18.268;2023-02-28T02:41:18;30.80;;;16.60;;
40170;SDS011;37650;52.790;18.268;2023-02-28T02:48:27;32.50;;;16.90;;
40170;SDS011;37650;52.790;18.268;2023-02-28T02:51:52;34.30;;;18.10;;
40170;SDS011;37650;52.790;18.268;2023-02-28T02:55:15;32.60;;;16.80;;
40170;SDS011;37650;52.790;18.268;2023-02-28T02:58:41;32.40;;;17.70;;
40170;SDS011;37650;52.790;18.268;2023-02-28T03:02:06;30.70;;;17.40;;
40170;SDS011;37650;52.790;18.268;2023-02-28T03:05:49;29.30;;;17.50;;
40170;SDS011;37650;52.790;18.268;2023-02-28T03:09:11;34.50;;;18.00;;
40170;SDS011;37650;52.790;18.268;2023-02-28T03:12:39;38.10;;;19.70;;
40170;SDS011;37650;52.790;18.268;2023-02-28T03:23:33;34.30;;;18.80;;
40170;SDS011;37650;52.790;18.268;2023-02-28T03:27:05;35.90;;;18.40;;
40170;SDS011;37650;52.790;18.268;2023-02-28T03:30:44;34.80;;;17.80;;
40170;SDS011;37650;52.790;18.268;2023-02-28T03:34:17;30.20;;;17.50;;
40170;SDS011;37650;52.790;18.268;2023-02-28T03:37:44;32.20;;;17.80;;
40170;SDS011;37650;52.790;18.268;2023-02-28T03:41:12;35.20;;;18.20;;
40170;SDS011;37650;52.790;18.268;2023-02-28T03:44:38;36.60;;;20.10;;
40170;SDS011;37650;52.790;18.268;2023-02-28T03:51:48;37.00;;;20.10;;
40170;SDS011;37650;52.790;18.268;2023-02-28T03:55:12;30.70;;;19.20;;
40170;SDS011;37650;52.790;18.268;2023-02-28T04:02:15;32.80;;;17.70;;
40170;SDS011;37650;52.790;18.268;2023-02-28T04:05:48;34.10;;;21.50;;
40170;SDS011;37650;52.790;18.268;2023-02-28T04:09:13;31.60;;;18.20;;
40170;SDS011;37650;52.790;18.268;2023-02-28T04:15:56;32.90;;;17.50;;
40170;SDS011;37650;52.790;18.268;2023-02-28T04:19:17;30.30;;;16.40;;
40170;SDS011;37650;52.790;18.268;2023-02-28T04:22:39;29.80;;;16.10;;
40170;SDS011;37650;52.790;18.268;2023-02-28T04:26:01;30.90;;;17.80;;
40170;SDS011;37650;52.790;18.268;2023-02-28T04:29:23;31.70;;;17.80;;
40170;SDS011;37650;52.790;18.268;2023-02-28T04:32:47;30.90;;;16.90;;
40170;SDS011;37650;52.790;18.268;2023-02-28T04:36:08;33.60;;;17.20;;
40170;SDS011;37650;52.790;18.268;2023-02-28T04:39:30;27.40;;;15.90;;
40170;SDS011;37650;52.790;18.268;2023-02-28T04:42:51;30.10;;;17.40;;
40170;SDS011;37650;52.790;18.268;2023-02-28T04:46:12;32.00;;;18.30;;
40170;SDS011;37650;52.790;18.268;2023-02-28T04:49:33;32.60;;;20.70;;
40170;SDS011;37650;52.790;18.268;2023-02-28T04:52:55;30.20;;;17.80;;
40170;SDS011;37650;52.790;18.268;2023-02-28T04:59:39;33.50;;;18.20;;
40170;SDS011;37650;52.790;18.268;2023-02-28T05:03:00;36.80;;;20.40;;
40170;SDS011;37650;52.790;18.268;2023-02-28T05:06:23;37.40;;;20.60;;
40170;SDS011;37650;52.790;18.268;2023-02-28T05:09:45;47.70;;;24.70;;
40170;SDS011;37650;52.790;18.268;2023-02-28T05:13:06;60.80;;;27.80;;
40170;SDS011;37650;52.790;18.268;2023-02-28T05:16:30;54.20;;;25.30;;
40170;SDS011;37650;52.790;18.268;2023-02-28T05:19:51;55.50;;;25.00;;
40170;SDS011;37650;52.790;18.268;2023-02-28T05:23:13;56.80;;;27.90;;
40170;SDS011;37650;52.790;18.268;2023-02-28T05:26:36;54.40;;;28.20;;
40170;SDS011;37650;52.790;18.268;2023-02-28T05:29:58;54.50;;;26.00;;
40170;SDS011;37650;52.790;18.268;2023-02-28T05:33:19;54.90;;;24.80;;
40170;SDS011;37650;52.790;18.268;2023-02-28T05:36:41;51.60;;;24.60;;
40170;SDS011;37650;52.790;18.268;2023-02-28T05:40:03;52.20;;;24.80;;
40170;SDS011;37650;52.790;18.268;2023-02-28T05:43:26;59.40;;;29.80;;
40170;SDS011;37650;52.790;18.268;2023-02-28T05:46:48;55.40;;;26.50;;
40170;SDS011;37650;52.790;18.268;2023-02-28T05:50:09;52.50;;;25.80;;
40170;SDS011;37650;52.790;18.268;2023-02-28T05:53:31;58.10;;;29.40;;
40170;SDS011;37650;52.790;18.268;2023-02-28T05:56:53;50.20;;;25.60;;
40170;SDS011;37650;52.790;18.268;2023-02-28T06:00:14;47.90;;;25.90;;
40170;SDS011;37650;52.790;18.268;2023-02-28T06:03:36;55.10;;;28.60;;
40170;SDS011;37650;52.790;18.268;2023-02-28T06:06:58;62.70;;;32.90;;
40170;SDS011;37650;52.790;18.268;2023-02-28T06:10:19;62.50;;;32.50;;
40170;SDS011;37650;52.790;18.268;2023-02-28T06:13:40;57.10;;;32.70;;
40170;SDS011;37650;52.790;18.268;2023-02-28T06:17:02;46.50;;;27.10;;
40170;SDS011;37650;52.790;18.268;2023-02-28T06:20:25;55.20;;;30.00;;
40170;SDS011;37650;52.790;18.268;2023-02-28T06:23:50;47.60;;;26.00;;
40170;SDS011;37650;52.790;18.268;2023-02-28T06:27:11;55.30;;;29.60;;
40170;SDS011;37650;52.790;18.268;2023-02-28T06:30:33;46.90;;;27.30;;
40170;SDS011;37650;52.790;18.268;2023-02-28T06:33:54;53.90;;;29.00;;
40170;SDS011;37650;52.790;18.268;2023-02-28T06:37:17;42.70;;;26.20;;
40170;SDS011;37650;52.790;18.268;2023-02-28T06:40:38;39.40;;;23.00;;
40170;SDS011;37650;52.790;18.268;2023-02-28T06:43:59;43.20;;;25.90;;
40170;SDS011;37650;52.790;18.268;2023-02-28T06:47:21;84.20;;;43.60;;
40170;SDS011;37650;52.790;18.268;2023-02-28T06:50:42;53.30;;;27.60;;
40170;SDS011;37650;52.790;18.268;2023-02-28T06:54:04;46.50;;;26.90;;
40170;SDS011;37650;52.790;18.268;2023-02-28T07:00:54;37.60;;;25.00;;
40170;SDS011;37650;52.790;18.268;2023-02-28T07:04:15;46.40;;;30.60;;
40170;SDS011;37650;52.790;18.268;2023-02-28T07:07:36;47.10;;;31.20;;
40170;SDS011;37650;52.790;18.268;2023-02-28T07:10:59;49.00;;;31.10;;
40170;SDS011;37650;52.790;18.268;2023-02-28T07:14:20;38.40;;;26.20;;
40170;SDS011;37650;52.790;18.268;2023-02-28T07:21:05;40.30;;;23.40;;
40170;SDS011;37650;52.790;18.268;2023-02-28T07:24:29;34.00;;;22.60;;
40170;SDS011;37650;52.790;18.268;2023-02-28T07:27:51;34.10;;;22.70;;
40170;SDS011;37650;52.790;18.268;2023-02-28T07:31:13;42.30;;;28.90;;
40170;SDS011;37650;52.790;18.268;2023-02-28T07:34:35;80.90;;;45.60;;
40170;SDS011;37650;52.790;18.268;2023-02-28T07:37:59;74.00;;;43.50;;
40170;SDS011;37650;52.790;18.268;2023-02-28T07:41:21;63.80;;;39.00;;
40170;SDS011;37650;52.790;18.268;2023-02-28T07:44:44;34.80;;;22.70;;
40170;SDS011;37650;52.790;18.268;2023-02-28T07:48:06;30.90;;;21.90;;
40170;SDS011;37650;52.790;18.268;2023-02-28T07:51:31;34.80;;;22.80;;
40170;SDS011;37650;52.790;18.268;2023-02-28T07:54:53;32.10;;;22.20;;
40170;SDS011;37650;52.790;18.268;2023-02-28T07:58:14;33.60;;;24.90;;
40170;SDS011;37650;52.790;18.268;2023-02-28T08:01:35;34.10;;;24.60;;
40170;SDS011;37650;52.790;18.268;2023-02-28T08:04:57;33.80;;;24.30;;
40170;SDS011;37650;52.790;18.268;2023-02-28T08:08:18;36.80;;;27.30;;
40170;SDS011;37650;52.790;18.268;2023-02-28T08:11:39;40.10;;;29.00;;
40170;SDS011;37650;52.790;18.268;2023-02-28T08:15:01;43.60;;;31.50;;
40170;SDS011;37650;52.790;18.268;2023-02-28T08:18:22;44.10;;;32.80;;
40170;SDS011;37650;52.790;18.268;2023-02-28T08:25:05;48.40;;;37.50;;
40170;SDS011;37650;52.790;18.268;2023-02-28T08:28:28;46.70;;;35.90;;
40170;SDS011;37650;52.790;18.268;2023-02-28T08:31:49;50.60;;;38.10;;
40170;SDS011;37650;52.790;18.268;2023-02-28T08:35:11;52.00;;;38.60;;
40170;SDS011;37650;52.790;18.268;2023-02-28T08:38:32;52.10;;;37.20;;
40170;SDS011;37650;52.790;18.268;2023-02-28T08:41:54;48.70;;;35.20;;
40170;SDS011;37650;52.790;18.268;2023-02-28T08:45:15;42.00;;;29.10;;
40170;SDS011;37650;52.790;18.268;2023-02-28T08:48:37;37.70;;;27.80;;
40170;SDS011;37650;52.790;18.268;2023-02-28T08:51:58;41.20;;;30.50;;
40170;SDS011;37650;52.790;18.268;2023-02-28T08:55:19;35.00;;;27.30;;
40170;SDS011;37650;52.790;18.268;2023-02-28T08:58:41;32.00;;;22.40;;
40170;SDS011;37650;52.790;18.268;2023-02-28T09:02:02;28.40;;;21.90;;
40170;SDS011;37650;52.790;18.268;2023-02-28T09:05:24;35.90;;;27.00;;
40170;SDS011;37650;52.790;18.268;2023-02-28T09:08:45;30.30;;;22.90;;
40170;SDS011;37650;52.790;18.268;2023-02-28T09:12:10;29.20;;;23.70;;
40170;SDS011;37650;52.790;18.268;2023-02-28T09:15:31;27.30;;;20.50;;
40170;SDS011;37650;52.790;18.268;2023-02-28T09:18:52;26.50;;;19.50;;
40170;SDS011;37650;52.790;18.268;2023-02-28T09:22:13;32.10;;;24.90;;
40170;SDS011;37650;52.790;18.268;2023-02-28T09:25:35;30.50;;;23.00;;
40170;SDS011;37650;52.790;18.268;2023-02-28T09:32:19;31.90;;;24.10;;
40170;SDS011;37650;52.790;18.268;2023-02-28T09:35:40;31.40;;;24.40;;
40170;SDS011;37650;52.790;18.268;2023-02-28T09:39:03;29.40;;;22.30;;
40170;SDS011;37650;52.790;18.268;2023-02-28T09:42:27;30.10;;;21.70;;
40170;SDS011;37650;52.790;18.268;2023-02-28T09:45:55;29.40;;;22.30;;
40170;SDS011;37650;52.790;18.268;2023-02-28T09:49:24;26.80;;;22.00;;
40170;SDS011;37650;52.790;18.268;2023-02-28T09:52:56;28.90;;;22.30;;
40170;SDS011;37650;52.790;18.268;2023-02-28T10:03:29;27.40;;;21.00;;
40170;SDS011;37650;52.790;18.268;2023-02-28T10:07:01;26.50;;;21.20;;
40170;SDS011;37650;52.790;18.268;2023-02-28T10:10:40;23.10;;;17.10;;
40170;SDS011;37650;52.790;18.268;2023-02-28T10:14:21;24.10;;;16.20;;
40170;SDS011;37650;52.790;18.268;2023-02-28T10:17:47;18.10;;;14.20;;
40170;SDS011;37650;52.790;18.268;2023-02-28T10:21:59;21.20;;;14.70;;
40170;SDS011;37650;52.790;18.268;2023-02-28T10:25:00;18.20;;;13.30;;
40170;SDS011;37650;52.790;18.268;2023-02-28T10:28:26;24.50;;;17.20;;
40170;SDS011;37650;52.790;18.268;2023-02-28T10:31:51;18.60;;;12.70;;
40170;SDS011;37650;52.790;18.268;2023-02-28T10:35:16;21.70;;;12.70;;
40170;SDS011;37650;52.790;18.268;2023-02-28T10:38:40;15.00;;;10.50;;
40170;SDS011;37650;52.790;18.268;2023-02-28T10:42:01;17.00;;;12.60;;
40170;SDS011;37650;52.790;18.268;2023-02-28T10:45:22;13.20;;;9.50;;
40170;SDS011;37650;52.790;18.268;2023-02-28T10:48:45;15.80;;;11.50;;
40170;SDS011;37650;52.790;18.268;2023-02-28T10:52:37;21.70;;;15.40;;
40170;SDS011;37650;52.790;18.268;2023-02-28T10:59:28;16.70;;;11.80;;
40170;SDS011;37650;52.790;18.268;2023-02-28T11:02:51;18.90;;;12.40;;
40170;SDS011;37650;52.790;18.268;2023-02-28T11:06:16;13.90;;;10.80;;
40170;SDS011;37650;52.790;18.268;2023-02-28T11:09:41;25.20;;;22.40;;
40170;SDS011;37650;52.790;18.268;2023-02-28T11:13:05;37.60;;;27.70;;
40170;SDS011;37650;52.790;18.268;2023-02-28T11:16:31;26.00;;;23.20;;
40170;SDS011;37650;52.790;18.268;2023-02-28T11:23:25;21.10;;;18.90;;
40170;SDS011;37650;52.790;18.268;2023-02-28T11:26:50;16.00;;;13.90;;
40170;SDS011;37650;52.790;18.268;2023-02-28T11:33:54;16.10;;;13.20;;
40170;SDS011;37650;52.790;18.268;2023-02-28T11:37:18;16.30;;;14.00;;
40170;SDS011;37650;52.790;18.268;2023-02-28T11:48:25;15.20;;;13.60;;
40170;SDS011;37650;52.790;18.268;2023-02-28T11:55:35;13.70;;;12.20;;
40170;SDS011;37650;52.790;18.268;2023-02-28T12:02:33;15.00;;;13.50;;
40170;SDS011;37650;52.790;18.268;2023-02-28T12:06:33;14.70;;;12.80;;
40170;SDS011;37650;52.790;18.268;2023-02-28T12:17:29;14.30;;;11.40;;
40170;SDS011;37650;52.790;18.268;2023-02-28T12:28:12;16.90;;;13.60;;
40170;SDS011;37650;52.790;18.268;2023-02-28T12:31:38;22.50;;;18.70;;
40170;SDS011;37650;52.790;18.268;2023-02-28T12:35:11;34.90;;;26.20;;
40170;SDS011;37650;52.790;18.268;2023-02-28T12:42:25;15.10;;;13.60;;
40170;SDS011;37650;52.790;18.268;2023-02-28T12:45:58;13.20;;;11.70;;
40170;SDS011;37650;52.790;18.268;2023-02-28T12:49:25;12.20;;;11.00;;
40170;SDS011;37650;52.790;18.268;2023-02-28T13:00:52;11.20;;;9.60;;
40170;SDS011;37650;52.790;18.268;2023-02-28T13:04:42;10.10;;;7.50;;
40170;SDS011;37650;52.790;18.268;2023-02-28T13:12:15;17.00;;;12.50;;
40170;SDS011;37650;52.790;18.268;2023-02-28T13:15:37;9.90;;;7.60;;
40170;SDS011;37650;52.790;18.268;2023-02-28T13:19:08;12.40;;;8.30;;
40170;SDS011;37650;52.790;18.268;2023-02-28T13:22:41;8.60;;;6.70;;
40170;SDS011;37650;52.790;18.268;2023-02-28T13:26:04;9.10;;;6.90;;
40170;SDS011;37650;52.790;18.268;2023-02-28T13:29:38;9.70;;;7.30;;
40170;SDS011;37650;52.790;18.268;2023-02-28T13:36:42;9.60;;;6.90;;
40170;SDS011;37650;52.790;18.268;2023-02-28T13:47:24;8.40;;;7.60;;
40170;SDS011;37650;52.790;18.268;2023-02-28T13:50:50;14.00;;;8.30;;
40170;SDS011;37650;52.790;18.268;2023-02-28T14:05:22;9.80;;;8.10;;
40170;SDS011;37650;52.790;18.268;2023-02-28T14:08:59;11.60;;;8.70;;
40170;SDS011;37650;52.790;18.268;2023-02-28T14:16:21;10.20;;;8.80;;
40170;SDS011;37650;52.790;18.268;2023-02-28T14:19:45;15.60;;;10.40;;
40170;SDS011;37650;52.790;18.268;2023-02-28T14:23:55;12.50;;;9.30;;
40170;SDS011;37650;52.790;18.268;2023-02-28T14:37:57;11.50;;;9.90;;
40170;SDS011;37650;52.790;18.268;2023-02-28T14:41:21;15.60;;;10.40;;
40170;SDS011;37650;52.790;18.268;2023-02-28T14:44:53;13.60;;;10.50;;
40170;SDS011;37650;52.790;18.268;2023-02-28T14:48:16;14.60;;;10.80;;
40170;SDS011;37650;52.790;18.268;2023-02-28T14:51:39;14.00;;;10.50;;
40170;SDS011;37650;52.790;18.268;2023-02-28T14:55:03;13.10;;;9.90;;
40170;SDS011;37650;52.790;18.268;2023-02-28T14:58:29;14.00;;;9.30;;
40170;SDS011;37650;52.790;18.268;2023-02-28T15:02:12;18.60;;;11.50;;
40170;SDS011;37650;52.790;18.268;2023-02-28T15:05:38;18.50;;;12.20;;
40170;SDS011;37650;52.790;18.268;2023-02-28T15:09:10;14.00;;;10.10;;
40170;SDS011;37650;52.790;18.268;2023-02-28T15:12:31;12.70;;;9.70;;
40170;SDS011;37650;52.790;18.268;2023-02-28T15:15:54;18.10;;;11.80;;
40170;SDS011;37650;52.790;18.268;2023-02-28T15:19:40;27.50;;;17.60;;
40170;SDS011;37650;52.790;18.268;2023-02-28T15:26:23;100.30;;;46.10;;
40170;SDS011;37650;52.790;18.268;2023-02-28T15:29:50;30.40;;;15.90;;
40170;SDS011;37650;52.790;18.268;2023-02-28T15:33:20;23.20;;;12.90;;
40170;SDS011;37650;52.790;18.268;2023-02-28T15:36:43;17.30;;;11.40;;
40170;SDS011;37650;52.790;18.268;2023-02-28T15:40:10;18.10;;;10.80;;
40170;SDS011;37650;52.790;18.268;2023-02-28T15:43:36;25.10;;;16.30;;
40170;SDS011;37650;52.790;18.268;2023-02-28T15:47:06;41.70;;;31.50;;
40170;SDS011;37650;52.790;18.268;2023-02-28T15:50:37;45.10;;;36.20;;
40170;SDS011;37650;52.790;18.268;2023-02-28T15:54:02;29.30;;;20.40;;
40170;SDS011;37650;52.790;18.268;2023-02-28T15:57:28;124.70;;;49.80;;
40170;SDS011;37650;52.790;18.268;2023-02-28T16:05:00;69.00;;;35.70;;
40170;SDS011;37650;52.790;18.268;2023-02-28T16:08:22;33.20;;;20.80;;
40170;SDS011;37650;52.790;18.268;2023-02-28T16:11:48;39.00;;;22.20;;
40170;SDS011;37650;52.790;18.268;2023-02-28T16:15:19;39.60;;;23.10;;
40170;SDS011;37650;52.790;18.268;2023-02-28T16:18:47;46.90;;;27.10;;
40170;SDS011;37650;52.790;18.268;2023-02-28T16:22:09;46.40;;;25.20;;
40170;SDS011;37650;52.790;18.268;2023-02-28T16:25:35;41.40;;;23.60;;
40170;SDS011;37650;52.790;18.268;2023-02-28T16:28:58;45.90;;;24.50;;
40170;SDS011;37650;52.790;18.268;2023-02-28T16:32:19;44.50;;;23.10;;
40170;SDS011;37650;52.790;18.268;2023-02-28T16:35:41;45.80;;;23.00;;
40170;SDS011;37650;52.790;18.268;2023-02-28T16:39:03;47.00;;;24.90;;
40170;SDS011;37650;52.790;18.268;2023-02-28T16:42:27;55.70;;;28.70;;
40170;SDS011;37650;52.790;18.268;2023-02-28T16:45:50;64.50;;;30.00;;
40170;SDS011;37650;52.790;18.268;2023-02-28T16:49:17;47.50;;;26.20;;
40170;SDS011;37650;52.790;18.268;2023-02-28T16:52:38;46.70;;;24.00;;
40170;SDS011;37650;52.790;18.268;2023-02-28T16:56:01;39.20;;;21.40;;
40170;SDS011;37650;52.790;18.268;2023-02-28T16:59:23;43.50;;;22.60;;
40170;SDS011;37650;52.790;18.268;2023-02-28T17:02:47;42.90;;;22.40;;
40170;SDS011;37650;52.790;18.268;2023-02-28T17:06:15;42.10;;;22.60;;
40170;SDS011;37650;52.790;18.268;2023-02-28T17:09:43;44.70;;;23.80;;
40170;SDS011;37650;52.790;18.268;2023-02-28T17:13:05;43.30;;;22.40;;
40170;SDS011;37650;52.790;18.268;2023-02-28T17:16:29;48.00;;;24.40;;
40170;SDS011;37650;52.790;18.268;2023-02-28T17:19:53;56.90;;;31.20;;
40170;SDS011;37650;52.790;18.268;2023-02-28T17:23:14;59.60;;;30.80;;
40170;SDS011;37650;52.790;18.268;2023-02-28T17:26:36;71.60;;;34.60;;
40170;SDS011;37650;52.790;18.268;2023-02-28T17:30:00;58.10;;;35.80;;
40170;SDS011;37650;52.790;18.268;2023-02-28T17:33:26;69.40;;;38.20;;
40170;SDS011;37650;52.790;18.268;2023-02-28T17:36:48;66.80;;;35.10;;
40170;SDS011;37650;52.790;18.268;2023-02-28T17:40:17;63.80;;;36.20;;
40170;SDS011;37650;52.790;18.268;2023-02-28T17:43:43;66.50;;;36.90;;
40170;SDS011;37650;52.790;18.268;2023-02-28T17:47:05;68.20;;;34.10;;
40170;SDS011;37650;52.790;18.268;2023-02-28T17:50:27;69.80;;;37.00;;
40170;SDS011;37650;52.790;18.268;2023-02-28T17:53:48;64.70;;;35.60;;
40170;SDS011;37650;52.790;18.268;2023-02-28T18:00:36;65.10;;;32.80;;
40170;SDS011;37650;52.790;18.268;2023-02-28T18:04:00;60.00;;;29.70;;
40170;SDS011;37650;52.790;18.268;2023-02-28T18:07:22;68.90;;;31.80;;
40170;SDS011;37650;52.790;18.268;2023-02-28T18:10:46;55.80;;;26.80;;
40170;SDS011;37650;52.790;18.268;2023-02-28T18:14:09;48.20;;;25.60;;
40170;SDS011;37650;52.790;18.268;2023-02-28T18:17:32;54.00;;;29.50;;
40170;SDS011;37650;52.790;18.268;2023-02-28T18:20:54;50.60;;;29.80;;
40170;SDS011;37650;52.790;18.268;2023-02-28T18:24:17;54.90;;;32.40;;
40170;SDS011;37650;52.790;18.268;2023-02-28T18:27:43;59.80;;;34.70;;
40170;SDS011;37650;52.790;18.268;2023-02-28T18:31:20;90.30;;;42.20;;
40170;SDS011;37650;52.790;18.268;2023-02-28T18:34:42;98.40;;;46.50;;
40170;SDS011;37650;52.790;18.268;2023-02-28T18:38:12;110.90;;;52.60;;
40170;SDS011;37650;52.790;18.268;2023-02-28T18:41:36;112.50;;;54.40;;
40170;SDS011;37650;52.790;18.268;2023-02-28T18:44:59;96.00;;;49.80;;
40170;SDS011;37650;52.790;18.268;2023-02-28T18:48:22;97.30;;;49.60;;
40170;SDS011;37650;52.790;18.268;2023-02-28T18:51:46;193.90;;;78.90;;
40170;SDS011;37650;52.790;18.268;2023-02-28T18:55:10;143.20;;;64.60;;
40170;SDS011;37650;52.790;18.268;2023-02-28T18:58:36;132.30;;;62.00;;
40170;SDS011;37650;52.790;18.268;2023-02-28T19:01:58;96.70;;;46.80;;
40170;SDS011;37650;52.790;18.268;2023-02-28T19:05:23;60.80;;;32.70;;
40170;SDS011;37650;52.790;18.268;2023-02-28T19:08:46;62.70;;;35.90;;
40170;SDS011;37650;52.790;18.268;2023-02-28T19:12:14;57.90;;;35.80;;
40170;SDS011;37650;52.790;18.268;2023-02-28T19:15:38;62.60;;;37.70;;
40170;SDS011;37650;52.790;18.268;2023-02-28T19:19:01;50.40;;;30.40;;
40170;SDS011;37650;52.790;18.268;2023-02-28T19:22:24;49.20;;;26.90;;
40170;SDS011;37650;52.790;18.268;2023-02-28T19:25:47;55.00;;;27.00;;
40170;SDS011;37650;52.790;18.268;2023-02-28T19:29:11;59.20;;;33.70;;
40170;SDS011;37650;52.790;18.268;2023-02-28T19:32:35;64.90;;;34.80;;
40170;SDS011;37650;52.790;18.268;2023-02-28T19:35:59;72.70;;;37.10;;
40170;SDS011;37650;52.790;18.268;2023-02-28T19:39:22;69.30;;;36.70;;
40170;SDS011;37650;52.790;18.268;2023-02-28T19:42:45;62.10;;;33.90;;
40170;SDS011;37650;52.790;18.268;2023-02-28T19:46:10;62.10;;;31.40;;
40170;SDS011;37650;52.790;18.268;2023-02-28T19:49:35;70.50;;;34.80;;
40170;SDS011;37650;52.790;18.268;2023-02-28T19:53:01;70.20;;;34.50;;
40170;SDS011;37650;52.790;18.268;2023-02-28T19:56:24;60.00;;;33.20;;
40170;SDS011;37650;52.790;18.268;2023-02-28T19:59:53;61.90;;;33.50;;
40170;SDS011;37650;52.790;18.268;2023-02-28T20:03:16;59.60;;;33.60;;
40170;SDS011;37650;52.790;18.268;2023-02-28T20:06:40;57.70;;;32.00;;
40170;SDS011;37650;52.790;18.268;2023-02-28T20:10:05;53.70;;;30.40;;
40170;SDS011;37650;52.790;18.268;2023-02-28T20:13:31;53.60;;;29.10;;
40170;SDS011;37650;52.790;18.268;2023-02-28T20:16:52;49.00;;;27.10;;
40170;SDS011;37650;52.790;18.268;2023-02-28T20:20:15;49.50;;;26.50;;
40170;SDS011;37650;52.790;18.268;2023-02-28T20:23:54;53.50;;;27.20;;
40170;SDS011;37650;52.790;18.268;2023-02-28T20:27:17;53.20;;;29.70;;
40170;SDS011;37650;52.790;18.268;2023-02-28T20:30:40;59.40;;;32.70;;
40170;SDS011;37650;52.790;18.268;2023-02-28T20:34:03;55.90;;;31.00;;
40170;SDS011;37650;52.790;18.268;2023-02-28T20:37:26;51.40;;;25.60;;
40170;SDS011;37650;52.790;18.268;2023-02-28T20:40:52;52.40;;;29.70;;
40170;SDS011;37650;52.790;18.268;2023-02-28T20:44:17;51.50;;;28.20;;
40170;SDS011;37650;52.790;18.268;2023-02-28T20:47:40;56.10;;;30.30;;
40170;SDS011;37650;52.790;18.268;2023-02-28T20:51:04;60.20;;;33.70;;
40170;SDS011;37650;52.790;18.268;2023-02-28T20:54:27;57.90;;;34.20;;
40170;SDS011;37650;52.790;18.268;2023-02-28T20:57:50;69.00;;;35.80;;
40170;SDS011;37650;52.790;18.268;2023-02-28T21:01:16;58.70;;;31.90;;
40170;SDS011;37650;52.790;18.268;2023-02-28T21:04:42;55.90;;;29.50;;
40170;SDS011;37650;52.790;18.268;2023-02-28T21:08:05;63.00;;;33.50;;
40170;SDS011;37650;52.790;18.268;2023-02-28T21:11:28;73.00;;;40.50;;
40170;SDS011;37650;52.790;18.268;2023-02-28T21:14:52;77.90;;;37.00;;
40170;SDS011;37650;52.790;18.268;2023-02-28T21:18:14;67.10;;;34.80;;
40170;SDS011;37650;52.790;18.268;2023-02-28T21:21:37;66.20;;;34.50;;
40170;SDS011;37650;52.790;18.268;2023-02-28T21:25:04;69.40;;;32.90;;
40170;SDS011;37650;52.790;18.268;2023-02-28T21:28:26;64.70;;;32.70;;
40170;SDS011;37650;52.790;18.268;2023-02-28T21:31:49;62.40;;;32.50;;
40170;SDS011;37650;52.790;18.268;2023-02-28T21:35:13;55.80;;;29.30;;
40170;SDS011;37650;52.790;18.268;2023-02-28T21:38:35;47.40;;;25.80;;
40170;SDS011;37650;52.790;18.268;2023-02-28T21:41:57;52.80;;;28.60;;
40170;SDS011;37650;52.790;18.268;2023-02-28T21:45:23;58.80;;;28.60;;
40170;SDS011;37650;52.790;18.268;2023-02-28T21:48:44;54.90;;;28.10;;
40170;SDS011;37650;52.790;18.268;2023-02-28T21:52:08;49.20;;;26.90;;
40170;SDS011;37650;52.790;18.268;2023-02-28T21:58:54;45.00;;;22.10;;
40170;SDS011;37650;52.790;18.268;2023-02-28T22:02:21;47.30;;;23.30;;
40170;SDS011;37650;52.790;18.268;2023-02-28T22:05:42;42.50;;;21.30;;
40170;SDS011;37650;52.790;18.268;2023-02-28T22:09:04;39.30;;;20.80;;
40170;SDS011;37650;52.790;18.268;2023-02-28T22:12:28;41.00;;;20.60;;
40170;SDS011;37650;52.790;18.268;2023-02-28T22:15:50;40.40;;;20.90;;
40170;SDS011;37650;52.790;18.268;2023-02-28T22:19:11;49.60;;;21.50;;
40170;SDS011;37650;52.790;18.268;2023-02-28T22:22:33;41.90;;;24.90;;
40170;SDS011;37650;52.790;18.268;2023-02-28T22:25:55;42.70;;;23.40;;
40170;SDS011;37650;52.790;18.268;2023-02-28T22:29:20;42.20;;;22.80;;
40170;SDS011;37650;52.790;18.268;2023-02-28T22:32:41;49.20;;;24.80;;